Time;durP1;ratioP1;P1;durP2;ratioP2;P2;SDS_P1;SDS_P2;PMS_P1;PMS_P2;Temp;Humidity;BMP_temperature;BMP_pressure;BME280_temperature;BME280_humidity;BME280_pressure;Samples;Min_cycle;Max_cycle;Signal;HPM_P1;HPM_P2
2023/04/03 00:00:32;;;;;;;4.35;0.80;;;4.90;99.90;;;;;;5052374;28;20021;-82
2023/04/03 00:02:58;;;;;;;1.23;0.82;;;4.90;99.90;;;;;;5050631;28;20034;-82
2023/04/03 00:05:24;;;;;;;0.50;0.50;;;4.90;99.90;;;;;;5050715;28;20051;-82
2023/04/03 00:07:50;;;;;;;0.63;0.63;;;4.90;99.90;;;;;;5051990;28;20025;-82
2023/04/03 00:10:16;;;;;;;3.22;0.85;;;4.90;99.90;;;;;;5054357;28;20027;-81
2023/04/03 00:12:42;;;;;;;3.28;1.00;;;4.90;99.90;;;;;;5057084;28;20056;-81
2023/04/03 00:15:08;;;;;;;3.58;0.70;;;4.80;99.90;;;;;;5036129;28;20406;-82
2023/04/03 00:17:35;;;;;;;1.05;0.70;;;4.80;99.90;;;;;;5036988;28;20036;-82
2023/04/03 00:20:01;;;;;;;1.65;0.85;;;4.70;99.90;;;;;;5042258;28;20076;-82
2023/04/03 00:22:28;;;;;;;2.90;0.70;;;4.70;99.90;;;;;;5055609;28;20040;-82
2023/04/03 00:24:54;;;;;;;1.48;0.63;;;4.60;99.90;;;;;;5038094;28;20132;-82
2023/04/03 00:27:20;;;;;;;1.58;0.63;;;4.60;99.90;;;;;;5042475;28;20087;-81
2023/04/03 00:29:46;;;;;;;4.38;0.70;;;4.60;99.90;;;;;;5054125;28;20469;-81
2023/04/03 00:32:11;;;;;;;1.17;0.80;;;4.60;99.90;;;;;;5051640;28;20079;-81
2023/04/03 00:35:07;;;;;;;3.72;1.08;;;4.60;99.90;;;;;;5055400;28;20021;-81
2023/04/03 00:37:33;;;;;;;2.47;0.88;;;4.50;99.90;;;;;;5017293;28;20562;-81
2023/04/03 00:39:59;;;;;;;4.88;0.80;;;4.50;99.90;;;;;;5035846;28;20116;-80
2023/04/03 00:42:25;;;;;;;1.38;0.80;;;4.50;99.90;;;;;;5036252;28;20033;-81
2023/04/03 00:44:56;;;;;;;1.90;1.25;;;4.50;99.90;;;;;;5037054;28;20025;-80
2023/04/03 00:47:24;;;;;;;3.63;1.58;;;4.40;99.90;;;;;;5036610;28;20342;-80
2023/04/03 00:49:52;;;;;;;2.43;0.80;;;4.30;99.90;;;;;;5055109;28;20486;-81
2023/04/03 00:52:21;;;;;;;7.53;0.80;;;4.40;99.90;;;;;;5049256;28;20029;-80
2023/04/03 00:54:48;;;;;;;2.45;0.75;;;4.40;99.90;;;;;;5036404;28;20078;-80
2023/04/03 00:57:33;;;;;;;3.53;1.13;;;4.40;99.90;;;;;;5035175;28;20029;-81
2023/04/03 01:00:06;;;;;;;4.80;0.90;;;4.40;99.90;;;;;;5036472;28;20036;-81
2023/04/03 01:02:32;;;;;;;1.42;0.85;;;4.40;99.90;;;;;;5035108;28;20417;-81
2023/04/03 01:04:58;;;;;;;2.63;0.75;;;4.20;99.90;;;;;;5049743;28;20039;-81
2023/04/03 01:07:28;;;;;;;2.22;0.50;;;4.30;99.90;;;;;;5040442;28;20034;-81
2023/04/03 01:09:57;;;;;;;1.85;0.80;;;4.30;99.90;;;;;;5049777;28;20017;-81
2023/04/03 01:12:27;;;;;;;0.88;0.82;;;4.30;99.90;;;;;;5056154;28;20063;-81
2023/04/03 01:14:56;;;;;;;1.85;1.00;;;4.30;99.90;;;;;;5046292;28;20029;-81
2023/04/03 01:17:38;;;;;;;3.90;1.08;;;4.20;99.90;;;;;;5035725;28;20042;-81
2023/04/03 01:20:23;;;;;;;1.38;0.85;;;4.20;99.90;;;;;;5035769;28;20048;-81
2023/04/03 01:23:11;;;;;;;2.70;0.80;;;4.20;99.90;;;;;;5049157;28;20056;-81
2023/04/03 01:25:41;;;;;;;1.33;0.63;;;4.20;99.90;;;;;;5054389;28;20128;-80
2023/04/03 01:28:10;;;;;;;2.47;0.70;;;4.10;99.90;;;;;;5053209;28;20027;-80
2023/04/03 01:31:00;;;;;;;1.88;1.08;;;4.10;99.90;;;;;;5034241;28;20548;-81
2023/04/03 01:33:26;;;;;;;2.75;0.95;;;4.10;99.90;;;;;;5036033;28;20490;-80
2023/04/03 01:35:51;;;;;;;2.95;1.42;;;4.00;99.90;;;;;;5034317;28;20036;-81
2023/04/03 01:38:17;;;;;;;2.20;1.08;;;4.00;99.90;;;;;;5036630;28;20025;-81
2023/04/03 01:40:43;;;;;;;3.60;0.98;;;3.90;99.90;;;;;;5035661;28;20542;-81
2023/04/03 01:43:08;;;;;;;1.70;0.90;;;3.90;99.90;;;;;;5032863;28;20033;-82
2023/04/03 01:45:34;;;;;;;2.55;0.80;;;3.80;99.90;;;;;;5036656;28;20044;-82
2023/04/03 01:48:00;;;;;;;4.43;1.02;;;3.80;99.90;;;;;;5050962;28;20048;-83
2023/04/03 01:50:26;;;;;;;1.73;0.98;;;3.90;99.90;;;;;;5052678;28;20045;-82
2023/04/03 01:52:51;;;;;;;3.58;1.40;;;3.80;99.90;;;;;;5051844;28;20533;-82
2023/04/03 01:55:18;;;;;;;1.25;0.57;;;3.90;99.90;;;;;;5053054;28;20033;-81
2023/04/03 01:57:45;;;;;;;5.18;1.05;;;3.90;99.90;;;;;;5039802;28;20033;-81
2023/04/03 02:00:12;;;;;;;3.80;1.23;;;3.90;99.90;;;;;;5016413;28;20117;-82
2023/04/03 02:02:37;;;;;;;1.27;0.63;;;3.80;99.90;;;;;;5032761;28;20065;-81
2023/04/03 02:05:03;;;;;;;1.55;0.80;;;3.80;99.90;;;;;;5016147;28;20060;-81
2023/04/03 02:07:29;;;;;;;4.30;0.88;;;3.80;99.90;;;;;;5031705;28;20176;-81
2023/04/03 02:09:55;;;;;;;3.45;1.08;;;3.70;99.90;;;;;;5032589;28;20025;-81
2023/04/03 02:12:21;;;;;;;7.50;1.20;;;3.70;99.90;;;;;;5032848;28;20033;-81
2023/04/03 02:14:46;;;;;;;1.80;1.05;;;3.70;99.90;;;;;;5042272;28;20040;-81
2023/04/03 02:17:12;;;;;;;1.85;0.82;;;3.60;99.90;;;;;;5033667;28;20060;-82
2023/04/03 02:19:39;;;;;;;2.90;1.13;;;3.60;99.90;;;;;;5016261;28;20030;-81
2023/04/03 02:22:05;;;;;;;3.35;0.98;;;3.60;99.90;;;;;;5033628;28;20111;-81
2023/04/03 02:24:32;;;;;;;1.20;0.93;;;3.60;99.90;;;;;;5052343;28;20099;-80
2023/04/03 02:26:57;;;;;;;4.30;1.15;;;3.60;99.90;;;;;;5051637;28;20382;-80
2023/04/03 02:29:23;;;;;;;5.00;0.85;;;3.50;99.90;;;;;;5048065;28;20018;-80
2023/04/03 02:31:50;;;;;;;1.30;1.00;;;3.40;99.90;;;;;;5033077;28;20021;-80
2023/04/03 02:34:16;;;;;;;3.25;0.90;;;3.50;99.90;;;;;;5033707;28;20096;-80
2023/04/03 02:36:41;;;;;;;2.72;0.95;;;3.40;99.90;;;;;;5033167;28;20063;-80
2023/04/03 02:39:08;;;;;;;1.02;0.85;;;3.40;99.90;;;;;;5048174;28;20037;-81
2023/04/03 02:41:35;;;;;;;3.78;0.93;;;3.40;99.90;;;;;;5053380;28;20021;-81
2023/04/03 02:44:08;;;;;;;3.47;0.90;;;3.40;99.90;;;;;;5050967;28;20032;-81
2023/04/03 02:46:34;;;;;;;2.78;1.00;;;3.40;99.90;;;;;;5032914;28;20033;-81
2023/04/03 02:49:00;;;;;;;1.67;0.80;;;3.30;99.90;;;;;;5042020;28;20026;-81
2023/04/03 02:51:26;;;;;;;1.10;0.90;;;3.30;99.90;;;;;;5033204;28;20037;-80
2023/04/03 02:53:51;;;;;;;2.05;0.95;;;3.30;99.90;;;;;;5034006;28;20425;-80
2023/04/03 02:56:19;;;;;;;4.28;1.13;;;3.30;99.90;;;;;;5053216;28;20052;-81
2023/04/03 02:58:44;;;;;;;7.40;1.00;;;3.30;99.90;;;;;;5051039;28;20130;-81
2023/04/03 03:01:11;;;;;;;4.38;1.38;;;3.30;99.90;;;;;;5051884;28;20025;-82
2023/04/03 03:03:37;;;;;;;2.00;1.27;;;3.30;99.90;;;;;;5055003;28;20436;-81
2023/04/03 03:06:11;;;;;;;3.92;1.40;;;3.30;99.90;;;;;;5056673;28;20083;-81
2023/04/03 03:08:37;;;;;;;2.95;1.10;;;3.30;99.90;;;;;;5054829;28;20092;-81
2023/04/03 03:11:04;;;;;;;2.53;0.85;;;3.30;99.90;;;;;;5067869;28;20060;-81
2023/04/03 03:13:30;;;;;;;2.63;1.10;;;3.20;99.90;;;;;;5062179;28;20044;-81
2023/04/03 03:15:56;;;;;;;1.67;1.15;;;3.20;99.90;;;;;;5047439;28;20025;-81
2023/04/03 03:18:22;;;;;;;2.15;0.88;;;3.10;99.90;;;;;;5056573;28;20017;-81
2023/04/03 03:20:55;;;;;;;0.88;0.80;;;3.10;99.90;;;;;;5057939;28;20052;-81
2023/04/03 03:23:23;;;;;;;5.85;0.98;;;3.10;99.90;;;;;;5060388;28;20052;-80
2023/04/03 03:25:48;;;;;;;2.43;0.77;;;3.00;99.90;;;;;;5078138;28;20043;-81
2023/04/03 03:28:14;;;;;;;2.15;0.90;;;3.00;99.90;;;;;;5076235;28;20267;-81
2023/04/03 03:30:40;;;;;;;5.22;1.08;;;3.10;99.90;;;;;;5058611;28;20014;-81
2023/04/03 03:33:05;;;;;;;2.53;0.98;;;3.20;99.90;;;;;;5060262;28;20022;-82
2023/04/03 03:35:32;;;;;;;4.20;1.10;;;3.20;99.90;;;;;;5078463;28;20020;-80
2023/04/03 03:37:58;;;;;;;3.22;0.82;;;3.10;99.90;;;;;;5078322;28;20028;-81
2023/04/03 03:40:24;;;;;;;3.08;1.10;;;3.10;99.90;;;;;;5060491;28;20013;-82
2023/04/03 03:42:50;;;;;;;1.60;1.08;;;3.10;99.90;;;;;;5059236;28;20049;-82
2023/04/03 03:45:16;;;;;;;2.90;1.15;;;3.10;99.90;;;;;;5078458;28;20052;-81
2023/04/03 03:47:41;;;;;;;1.85;0.85;;;3.10;99.90;;;;;;5078222;28;20048;-81
2023/04/03 03:50:08;;;;;;;4.13;1.50;;;3.10;99.90;;;;;;5078916;28;20024;-83
2023/04/03 03:52:34;;;;;;;5.85;0.88;;;3.00;99.90;;;;;;5077751;28;20061;-82
2023/04/03 03:55:00;;;;;;;1.60;1.00;;;3.00;99.90;;;;;;5069533;28;20056;-82
2023/04/03 03:57:28;;;;;;;4.18;0.95;;;3.00;99.90;;;;;;5063394;28;20034;-82
2023/04/03 03:59:54;;;;;;;5.15;1.05;;;3.00;99.90;;;;;;5074910;28;20022;-80
2023/04/03 04:02:20;;;;;;;4.03;1.38;;;2.90;99.90;;;;;;5077900;28;20022;-81
2023/04/03 04:04:45;;;;;;;1.48;0.85;;;2.90;99.90;;;;;;5074559;28;20033;-80
2023/04/03 04:07:20;;;;;;;1.88;1.13;;;3.00;99.90;;;;;;5063653;28;20024;-80
2023/04/03 04:09:45;;;;;;;6.03;0.98;;;3.00;99.90;;;;;;5059873;28;20042;-82
2023/04/03 04:12:11;;;;;;;6.40;1.40;;;2.90;99.90;;;;;;5061106;28;20018;-80
2023/04/03 04:14:37;;;;;;;4.13;1.20;;;2.90;99.90;;;;;;5058695;28;20085;-79
2023/04/03 04:17:02;;;;;;;1.58;1.00;;;3.00;99.90;;;;;;5060551;28;20028;-80
2023/04/03 04:19:29;;;;;;;1.73;0.90;;;2.90;99.90;;;;;;5074160;28;20120;-78
2023/04/03 04:21:54;;;;;;;2.03;1.08;;;2.90;99.90;;;;;;5058831;28;20033;-78
2023/04/03 04:24:20;;;;;;;4.57;0.90;;;2.90;99.90;;;;;;5058002;28;20028;-78
2023/04/03 04:26:45;;;;;;;1.83;1.08;;;2.80;99.90;;;;;;5047270;28;20034;-80
2023/04/03 04:29:11;;;;;;;4.75;1.25;;;2.80;99.90;;;;;;5035314;28;20025;-80
2023/04/03 04:31:37;;;;;;;2.42;1.10;;;2.80;99.90;;;;;;5044708;28;20053;-78
2023/04/03 04:34:02;;;;;;;3.42;1.08;;;2.80;99.90;;;;;;5044608;28;20025;-78
2023/04/03 04:36:28;;;;;;;3.53;1.45;;;2.80;99.90;;;;;;5040179;28;20111;-76
2023/04/03 04:38:54;;;;;;;4.13;1.10;;;2.80;99.90;;;;;;5051496;28;20056;-78
2023/04/03 04:41:23;;;;;;;2.47;1.10;;;2.80;99.90;;;;;;5051708;28;20029;-77
2023/04/03 04:43:50;;;;;;;4.65;0.95;;;2.80;99.90;;;;;;5052929;28;20115;-77
2023/04/03 04:46:15;;;;;;;3.00;1.10;;;2.80;99.90;;;;;;5049606;28;20093;-77
2023/04/03 04:48:41;;;;;;;2.17;0.98;;;2.80;99.90;;;;;;5072277;28;20105;-77
2023/04/03 04:51:07;;;;;;;2.33;1.27;;;2.80;99.90;;;;;;5046816;28;20040;-76
2023/04/03 04:53:33;;;;;;;4.28;2.28;;;2.80;99.90;;;;;;5043756;28;20535;-77
2023/04/03 04:56:00;;;;;;;2.95;1.63;;;2.80;99.90;;;;;;5043870;28;20025;-77
2023/04/03 04:58:25;;;;;;;4.88;0.82;;;2.80;99.90;;;;;;5036397;28;20033;-79
2023/04/03 05:01:00;;;;;;;2.67;1.50;;;2.80;99.90;;;;;;5040707;28;20033;-80
2023/04/03 05:03:25;;;;;;;1.40;1.10;;;2.90;99.90;;;;;;5061736;28;20037;-80
2023/04/03 05:05:51;;;;;;;2.10;1.45;;;2.90;99.90;;;;;;5066728;28;20114;-81
2023/04/03 05:08:17;;;;;;;8.10;1.50;;;2.90;99.90;;;;;;5051847;28;20033;-82
2023/04/03 05:10:44;;;;;;;4.57;1.20;;;2.90;99.90;;;;;;5042958;28;20060;-80
2023/04/03 05:13:10;;;;;;;4.22;1.85;;;2.90;99.90;;;;;;5053773;28;20037;-81
2023/04/03 05:15:35;;;;;;;0.80;0.80;;;2.90;99.90;;;;;;5042179;28;20090;-81
2023/04/03 05:18:01;;;;;;;3.20;1.58;;;2.90;99.90;;;;;;5064399;28;20041;-82
2023/04/03 05:20:27;;;;;;;1.58;1.17;;;2.90;99.90;;;;;;5061118;28;20032;-81
2023/04/03 05:22:52;;;;;;;6.93;1.30;;;2.90;99.90;;;;;;5073021;28;20048;-82
2023/04/03 05:25:18;;;;;;;8.35;1.83;;;2.80;99.90;;;;;;5075589;28;20041;-82
2023/04/03 05:27:44;;;;;;;4.07;1.60;;;2.90;99.90;;;;;;5076402;28;20120;-81
2023/04/03 05:30:10;;;;;;;4.90;1.63;;;2.90;99.90;;;;;;5074726;28;20036;-82
2023/04/03 05:32:35;;;;;;;3.38;1.27;;;2.80;99.90;;;;;;5075712;28;20024;-82
2023/04/03 05:35:01;;;;;;;4.97;1.85;;;2.90;99.90;;;;;;5061144;28;20048;-82
2023/04/03 05:37:27;;;;;;;4.90;1.85;;;2.90;99.90;;;;;;5056819;28;20037;-81
2023/04/03 05:39:53;;;;;;;3.78;1.33;;;2.90;99.90;;;;;;5056809;28;20098;-81
2023/04/03 05:42:18;;;;;;;5.55;1.10;;;3.00;99.90;;;;;;5058153;28;20116;-82
2023/04/03 05:44:46;;;;;;;3.15;1.15;;;3.00;99.90;;;;;;5057850;28;20033;-81
2023/04/03 05:47:12;;;;;;;;;;;3.00;99.90;;;;;;5057643;28;20029;-79
2023/04/03 05:49:40;;;;;;;4.05;1.40;;;3.00;99.90;;;;;;5055816;28;19958;-80
2023/04/03 05:52:17;;;;;;;2.92;1.70;;;3.00;99.90;;;;;;5056612;28;20453;-81
2023/04/03 05:54:44;;;;;;;5.68;1.70;;;3.00;99.90;;;;;;5056897;28;20112;-83
2023/04/03 05:57:09;;;;;;;2.85;1.10;;;3.10;99.90;;;;;;5058031;28;20029;-81
2023/04/03 05:59:35;;;;;;;11.63;2.05;;;3.10;99.90;;;;;;5058036;28;20029;-82
2023/04/03 06:02:01;;;;;;;7.72;1.88;;;3.20;99.90;;;;;;5058654;28;20037;-82
2023/04/03 06:04:27;;;;;;;10.75;1.90;;;3.20;99.90;;;;;;5057071;28;20044;-82
2023/04/03 06:06:56;;;;;;;2.22;1.25;;;3.30;99.90;;;;;;5057963;28;20044;-82
2023/04/03 06:09:24;;;;;;;5.88;1.27;;;3.40;99.90;;;;;;5055402;28;20480;-81
2023/04/03 06:11:50;;;;;;;3.47;1.10;;;3.40;99.90;;;;;;5056241;28;20496;-82
2023/04/03 06:14:16;;;;;;;2.17;1.38;;;3.40;99.90;;;;;;5056651;28;20024;-81
2023/04/03 06:16:41;;;;;;;2.92;1.20;;;3.50;99.90;;;;;;5057644;28;20119;-82
2023/04/03 06:19:08;;;;;;;1.80;1.30;;;3.50;99.90;;;;;;5058173;28;20060;-81
2023/04/03 06:21:35;;;;;;;7.63;1.63;;;3.50;99.90;;;;;;5055492;28;20067;-81
2023/04/03 06:24:02;;;;;;;5.43;1.48;;;3.70;99.90;;;;;;5045970;28;20064;-82
2023/04/03 06:26:28;;;;;;;2.53;1.00;;;3.70;99.90;;;;;;5036101;28;20029;-81
2023/04/03 06:28:54;;;;;;;5.22;1.10;;;3.80;99.90;;;;;;5039103;28;20021;-82
2023/04/03 06:31:20;;;;;;;2.08;1.08;;;3.80;99.90;;;;;;5039518;28;20032;-81
2023/04/03 06:33:46;;;;;;;6.50;1.50;;;3.80;99.90;;;;;;5039590;28;20025;-80
2023/04/03 06:36:12;;;;;;;1.58;1.10;;;3.80;99.90;;;;;;5037728;28;20033;-81
2023/04/03 06:38:37;;;;;;;2.22;1.08;;;3.90;99.90;;;;;;5037525;28;20037;-81
2023/04/03 06:41:05;;;;;;;2.13;1.23;;;4.00;99.90;;;;;;5037413;28;20052;-81
2023/04/03 06:43:32;;;;;;;6.30;1.70;;;4.00;99.90;;;;;;5037345;28;20592;-81
2023/04/03 06:45:57;;;;;;;3.80;1.70;;;4.10;99.90;;;;;;5036845;28;20101;-81
2023/04/03 06:48:24;;;;;;;1.15;0.73;;;4.20;99.90;;;;;;5038337;28;20061;-82
2023/04/03 06:50:50;;;;;;;2.95;1.13;;;4.30;99.90;;;;;;5038766;28;20032;-82
2023/04/03 06:53:16;;;;;;;18.17;1.33;;;4.30;99.90;;;;;;5038021;28;20042;-81
2023/04/03 06:55:41;;;;;;;4.22;1.35;;;4.30;99.90;;;;;;5037307;28;20063;-81
2023/04/03 06:58:07;;;;;;;4.70;1.52;;;4.40;99.90;;;;;;5038389;28;20029;-81
2023/04/03 07:00:33;;;;;;;4.10;0.82;;;4.40;99.90;;;;;;5036930;28;20025;-81
2023/04/03 07:02:59;;;;;;;2.40;1.00;;;4.60;99.90;;;;;;5038073;28;20025;-80
2023/04/03 07:05:25;;;;;;;5.18;0.95;;;4.60;99.90;;;;;;5038008;28;20021;-81
2023/04/03 07:07:52;;;;;;;9.55;1.13;;;4.70;99.90;;;;;;5036510;28;20069;-81
2023/04/03 07:10:18;;;;;;;4.75;1.30;;;4.80;99.90;;;;;;5036935;28;20088;-81
2023/04/03 07:12:43;;;;;;;5.43;1.40;;;4.90;99.90;;;;;;5037493;28;20468;-81
2023/04/03 07:15:10;;;;;;;6.00;1.10;;;4.90;99.90;;;;;;5038193;28;20026;-82
2023/04/03 07:17:36;;;;;;;3.63;0.85;;;5.00;99.90;;;;;;5036146;28;20029;-81
2023/04/03 07:20:04;;;;;;;1.20;0.60;;;5.10;99.90;;;;;;5034739;28;20041;-81
2023/04/03 07:22:30;;;;;;;2.97;0.85;;;5.10;99.90;;;;;;5035030;28;20052;-82
2023/04/03 07:24:56;;;;;;;3.88;1.02;;;5.10;99.90;;;;;;5035227;28;20053;-81
2023/04/03 07:27:22;;;;;;;2.30;1.20;;;5.10;99.90;;;;;;5036598;28;20034;-81
2023/04/03 07:29:48;;;;;;;6.25;1.20;;;5.20;99.90;;;;;;5035256;28;20041;-82
2023/04/03 07:32:15;;;;;;;2.67;0.80;;;5.30;99.90;;;;;;5019901;28;20037;-82
2023/04/03 07:34:41;;;;;;;3.05;1.13;;;5.40;99.90;;;;;;5020017;28;20522;-83
2023/04/03 07:37:08;;;;;;;5.43;0.98;;;5.40;99.90;;;;;;5035033;28;20423;-82
2023/04/03 07:39:34;;;;;;;2.17;1.08;;;5.50;99.90;;;;;;5035061;28;20034;-82
2023/04/03 07:42:03;;;;;;;2.83;1.10;;;5.60;99.90;;;;;;5036238;28;20413;-82
2023/04/03 07:44:30;;;;;;;1.63;0.77;;;5.70;99.90;;;;;;5033074;28;20549;-82
2023/04/03 07:46:56;;;;;;;3.00;0.60;;;5.90;99.90;;;;;;5017286;28;20140;-82
2023/04/03 07:49:23;;;;;;;5.20;0.85;;;6.00;99.90;;;;;;5018807;28;20296;-83
2023/04/03 07:51:49;;;;;;;10.45;1.50;;;6.10;99.90;;;;;;5036936;28;20073;-81
2023/04/03 07:54:16;;;;;;;3.55;0.82;;;6.10;99.90;;;;;;5033367;28;20040;-81
2023/04/03 07:56:42;;;;;;;2.92;1.00;;;6.20;99.90;;;;;;5034312;28;20033;-81
2023/04/03 07:59:11;;;;;;;1.23;0.57;;;6.30;99.90;;;;;;5035209;28;20029;-82
2023/04/03 08:01:37;;;;;;;2.17;0.95;;;6.40;99.90;;;;;;5035871;28;20453;-81
2023/04/03 08:04:03;;;;;;;2.70;1.20;;;6.30;99.90;;;;;;5035591;28;20045;-82
2023/04/03 08:06:32;;;;;;;1.17;0.93;;;6.20;99.90;;;;;;5036306;28;20037;-82
2023/04/03 08:08:58;;;;;;;3.95;0.95;;;6.20;99.90;;;;;;5036054;28;20033;-82
2023/04/03 08:11:26;;;;;;;5.03;2.63;;;6.40;99.90;;;;;;5036267;28;20112;-83
2023/04/03 08:13:52;;;;;;;3.53;0.68;;;6.40;99.90;;;;;;5036626;28;20022;-81
2023/04/03 08:16:21;;;;;;;7.22;0.68;;;6.40;99.90;;;;;;5035437;28;20033;-81
2023/04/03 08:18:48;;;;;;;3.42;0.70;;;6.60;99.90;;;;;;5034972;28;20029;-82
2023/04/03 08:21:14;;;;;;;4.57;0.82;;;6.70;99.90;;;;;;5034544;28;20038;-82
2023/04/03 08:23:41;;;;;;;5.80;1.02;;;6.80;99.90;;;;;;5036296;28;20030;-81
2023/04/03 08:26:13;;;;;;;6.13;0.77;;;6.80;99.90;;;;;;5036623;28;20056;-81
2023/04/03 08:28:39;;;;;;;1.15;0.63;;;6.80;99.90;;;;;;5034758;28;20128;-81
2023/04/03 08:31:19;;;;;;;3.30;0.77;;;6.90;99.90;;;;;;5037368;28;20075;-82
2023/04/03 08:33:45;;;;;;;2.97;0.82;;;7.00;99.90;;;;;;5039958;28;20067;-82
2023/04/03 08:36:30;;;;;;;3.40;0.95;;;7.20;99.90;;;;;;5034850;28;20577;-81
2023/04/03 08:38:57;;;;;;;2.67;0.60;;;7.30;99.90;;;;;;5039170;28;20112;-84
2023/04/03 08:41:39;;;;;;;1.13;0.52;;;7.40;99.90;;;;;;5039531;28;20029;-84
2023/04/03 08:44:33;;;;;;;2.65;0.77;;;7.50;99.90;;;;;;5038995;28;20060;-82
2023/04/03 08:47:21;;;;;;;1.38;0.55;;;7.50;99.90;;;;;;5039711;28;20037;-81
2023/04/03 08:50:00;;;;;;;1.52;0.45;;;7.50;99.90;;;;;;5040467;28;20048;-81
2023/04/03 08:52:34;;;;;;;1.10;0.50;;;7.60;99.90;;;;;;5038451;28;20046;-82
2023/04/03 08:55:07;;;;;;;4.57;0.75;;;7.60;99.90;;;;;;5039190;28;20040;-81
2023/04/03 08:57:36;;;;;;;0.75;0.32;;;7.60;99.90;;;;;;5038127;28;20523;-83
2023/04/03 09:00:16;;;;;;;2.78;0.40;;;7.60;97.80;;;;;;5038644;28;20032;-82
2023/04/03 09:02:54;;;;;;;0.70;0.50;;;7.60;98.60;;;;;;5038763;28;20118;-82
2023/04/03 09:05:42;;;;;;;0.40;0.22;;;7.70;97.60;;;;;;5037587;28;20116;-82
2023/04/03 09:08:21;;;;;;;;;;;7.80;98.80;;;;;;5038666;28;20072;-84
2023/04/03 09:10:46;;;;;;;2.72;0.30;;;8.00;97.20;;;;;;5036437;28;19913;-83
2023/04/03 09:13:16;;;;;;;3.28;0.32;;;8.00;96.00;;;;;;5038027;28;20453;-85
2023/04/03 09:15:43;;;;;;;1.05;0.30;;;8.00;97.00;;;;;;5037387;28;20107;-82
2023/04/03 09:18:39;;;;;;;2.00;0.30;;;8.10;97.20;;;;;;5036753;28;20026;-82
2023/04/03 09:21:04;;;;;;;0.60;0.60;;;8.30;96.00;;;;;;5036565;28;20030;-83
2023/04/03 09:23:39;;;;;;;1.92;0.50;;;8.50;96.40;;;;;;5037111;28;20111;-83
2023/04/03 09:26:28;;;;;;;0.43;0.35;;;8.50;96.10;;;;;;5036796;28;20033;-83
2023/04/03 09:28:59;;;;;;;2.78;0.40;;;8.60;95.10;;;;;;5034769;28;20068;-83
2023/04/03 09:31:30;;;;;;;0.60;0.40;;;8.60;94.00;;;;;;5036485;28;20033;-82
2023/04/03 09:34:03;;;;;;;3.05;0.50;;;8.60;93.10;;;;;;5035027;28;20025;-85
2023/04/03 09:36:51;;;;;;;1.85;0.60;;;8.60;93.10;;;;;;5036374;28;20537;-82
2023/04/03 09:39:22;;;;;;;0.93;0.50;;;8.70;92.90;;;;;;5036336;28;20040;-83
2023/04/03 09:41:59;;;;;;;1.35;0.38;;;8.80;92.90;;;;;;5034143;28;20029;-83
2023/04/03 09:45:01;;;;;;;1.63;0.45;;;9.00;93.50;;;;;;5036149;28;20485;-83
2023/04/03 09:47:33;;;;;;;1.02;0.70;;;9.10;92.30;;;;;;5036041;28;20037;-82
2023/04/03 09:50:20;;;;;;;0.70;0.10;;;9.20;92.60;;;;;;5036094;28;20029;-83
2023/04/03 09:52:49;;;;;;;0.40;0.20;;;9.10;92.40;;;;;;5035296;28;20045;-86
2023/04/03 09:55:30;;;;;;;0.73;0.38;;;9.00;91.30;;;;;;5037055;28;20025;-87
2023/04/03 09:58:01;;;;;;;1.38;0.30;;;8.80;91.50;;;;;;5036453;28;20083;-84
2023/04/03 10:00:38;;;;;;;0.60;0.50;;;8.90;92.20;;;;;;5036161;28;20029;-87
2023/04/03 10:03:04;;;;;;;0.73;0.40;;;8.90;91.70;;;;;;5036695;28;20040;-85
2023/04/03 10:05:39;;;;;;;1.23;0.45;;;9.00;91.30;;;;;;5036373;28;20398;-85
2023/04/03 10:08:08;;;;;;;0.38;0.38;;;9.10;92.10;;;;;;5035892;28;20095;-86
2023/04/03 10:10:34;;;;;;;0.88;0.30;;;9.10;92.10;;;;;;5035133;28;20029;-86
2023/04/03 10:13:20;;;;;;;1.85;0.30;;;9.20;91.00;;;;;;5035377;28;20455;-84
2023/04/03 10:15:55;;;;;;;0.73;0.27;;;9.10;91.70;;;;;;5035449;28;20025;-84
2023/04/03 10:18:42;;;;;;;0.88;0.40;;;9.10;91.50;;;;;;5035125;28;20036;-85
2023/04/03 10:21:17;;;;;;;3.13;0.30;;;9.20;91.40;;;;;;5034557;28;20046;-83
2023/04/03 10:23:56;;;;;;;0.30;0.22;;;9.40;92.30;;;;;;5035613;28;20079;-84
2023/04/03 10:26:39;;;;;;;1.30;0.20;;;9.50;91.60;;;;;;5035478;28;20036;-84
2023/04/03 10:29:33;;;;;;;0.15;0.10;;;9.50;90.20;;;;;;5036044;28;20116;-84
2023/04/03 10:32:31;;;;;;;0.85;0.15;;;9.50;92.00;;;;;;5035123;28;20036;-86
2023/04/03 10:35:16;;;;;;;0.20;0.20;;;9.60;90.30;;;;;;5036009;28;20018;-82
2023/04/03 10:37:51;;;;;;;0.60;0.15;;;9.40;90.60;;;;;;5036294;28;20458;-82
2023/04/03 10:40:32;;;;;;;6.03;0.32;;;9.60;90.50;;;;;;5034928;28;20160;-82
2023/04/03 10:43:21;;;;;;;0.17;0.10;;;9.60;90.40;;;;;;5030785;28;20451;-84
2023/04/03 10:46:07;;;;;;;1.35;0.40;;;9.70;90.80;;;;;;5035988;28;20036;-83
2023/04/03 10:48:35;;;;;;;1.55;0.20;;;9.80;90.40;;;;;;5037119;28;20394;-84
2023/04/03 10:51:20;;;;;;;1.95;0.15;;;9.80;90.00;;;;;;5037435;28;20111;-83
2023/04/03 10:54:15;;;;;;;0.20;0.20;;;9.90;90.00;;;;;;5050364;28;20092;-82
2023/04/03 10:57:03;;;;;;;5.78;0.30;;;10.10;89.30;;;;;;5058940;28;20084;-82
2023/04/03 10:59:41;;;;;;;;;;;10.20;89.10;;;;;;5059444;28;20037;-82
2023/04/03 11:02:26;;;;;;;0.20;0.20;;;10.10;87.80;;;;;;5059412;28;19901;-83
2023/04/03 11:04:59;;;;;;;0.77;0.38;;;10.10;87.60;;;;;;5058757;28;20048;-82
2023/04/03 11:07:36;;;;;;;1.33;0.20;;;10.20;90.00;;;;;;5059200;28;20036;-81
2023/04/03 11:10:16;;;;;;;3.70;0.90;;;10.40;88.20;;;;;;5058732;28;20045;-82
2023/04/03 11:12:51;;;;;;;1.45;0.20;;;10.40;87.10;;;;;;5059378;28;20040;-81
2023/04/03 11:15:20;;;;;;;0.40;0.25;;;10.50;87.30;;;;;;5059330;28;20017;-80
2023/04/03 11:18:02;;;;;;;0.38;0.20;;;10.60;85.90;;;;;;5059295;28;20081;-83
2023/04/03 11:20:33;;;;;;;0.10;0.10;;;10.50;85.80;;;;;;5059116;28;20018;-81
2023/04/03 11:23:25;;;;;;;0.40;0.30;;;10.50;86.30;;;;;;5059361;28;20083;-83
2023/04/03 11:25:55;;;;;;;1.13;0.20;;;10.70;85.10;;;;;;5058854;28;20030;-83
2023/04/03 11:28:20;;;;;;;3.85;0.40;;;10.80;86.20;;;;;;5058898;28;20101;-82
2023/04/03 11:31:15;;;;;;;4.13;0.45;;;11.00;84.70;;;;;;5059037;28;20030;-82
2023/04/03 11:34:18;;;;;;;0.60;0.40;;;11.10;86.60;;;;;;5058279;28;20030;-83
2023/04/03 11:36:51;;;;;;;2.47;0.60;;;11.30;84.80;;;;;;5058784;28;20014;-83
2023/04/03 11:39:31;;;;;;;1.65;0.52;;;11.30;84.80;;;;;;5058744;28;20026;-81
2023/04/03 11:42:26;;;;;;;1.05;0.22;;;11.30;87.40;;;;;;5058752;28;20051;-80
2023/04/03 11:45:26;;;;;;;1.52;0.30;;;11.30;85.50;;;;;;5058416;28;20192;-81
2023/04/03 11:47:59;;;;;;;0.35;0.25;;;11.30;85.60;;;;;;5057851;28;20038;-84
2023/04/03 11:50:43;;;;;;;2.92;0.55;;;11.10;85.00;;;;;;5058847;28;20064;-84
2023/04/03 11:53:12;;;;;;;1.02;0.60;;;10.90;87.30;;;;;;5058422;28;20037;-79
2023/04/03 11:55:50;;;;;;;1.42;0.35;;;11.00;87.70;;;;;;5058611;28;20033;-80
2023/04/03 11:58:34;;;;;;;2.05;0.30;;;11.10;86.70;;;;;;5058040;28;20036;-81
2023/04/03 12:01:05;;;;;;;0.93;0.30;;;11.20;88.10;;;;;;5058394;28;20033;-81
2023/04/03 12:03:34;;;;;;;0.20;0.15;;;11.50;86.00;;;;;;5058634;28;20051;-82
2023/04/03 12:06:06;;;;;;;3.28;0.43;;;11.50;86.20;;;;;;5060705;28;20021;-80
2023/04/03 12:08:50;;;;;;;1.15;0.40;;;11.50;87.80;;;;;;5061992;28;20025;-79
2023/04/03 12:11:23;;;;;;;0.47;0.40;;;11.60;90.10;;;;;;5061971;28;20018;-80
2023/04/03 12:13:52;;;;;;;3.72;0.28;;;11.80;88.20;;;;;;5062086;28;20037;-82
2023/04/03 12:16:39;;;;;;;0.45;0.45;;;11.50;86.30;;;;;;5061951;28;20037;-81
2023/04/03 12:19:14;;;;;;;1.20;0.67;;;11.30;87.10;;;;;;5062212;28;20044;-81
2023/04/03 12:21:48;;;;;;;1.70;0.38;;;11.30;88.70;;;;;;5061701;28;20125;-83
2023/04/03 12:24:17;;;;;;;0.80;0.50;;;11.30;87.80;;;;;;5061477;28;20022;-83
2023/04/03 12:27:03;;;;;;;0.90;0.50;;;11.30;88.30;;;;;;5061596;28;20041;-82
2023/04/03 12:29:32;;;;;;;3.72;0.28;;;11.50;89.60;;;;;;5064061;28;20015;-83
2023/04/03 12:32:13;;;;;;;0.93;0.50;;;11.60;88.50;;;;;;5062636;28;20021;-84
2023/04/03 12:35:03;;;;;;;1.90;0.40;;;11.70;87.30;;;;;;5061124;28;20025;-79
2023/04/03 12:38:07;;;;;;;1.05;0.88;;;11.70;87.60;;;;;;5045267;28;20025;-79
2023/04/03 12:40:42;;;;;;;0.55;0.40;;;11.80;88.00;;;;;;5057978;28;20036;-78
2023/04/03 12:43:20;;;;;;;0.50;0.28;;;11.80;88.40;;;;;;5042370;28;20037;-78
2023/04/03 12:46:17;;;;;;;2.20;0.30;;;11.70;89.30;;;;;;5044130;28;20275;-78
2023/04/03 12:49:11;;;;;;;0.77;0.27;;;11.60;89.60;;;;;;5045473;28;20029;-79
2023/04/03 12:51:46;;;;;;;2.70;0.70;;;11.70;88.00;;;;;;5044996;28;20316;-78
2023/04/03 12:54:23;;;;;;;0.50;0.43;;;11.80;88.30;;;;;;5044259;28;20032;-79
2023/04/03 12:56:48;;;;;;;1.65;0.32;;;11.90;87.30;;;;;;5055408;28;20031;-78
2023/04/03 12:59:18;;;;;;;1.05;0.73;;;12.00;87.00;;;;;;5054666;28;20029;-78
2023/04/03 13:02:15;;;;;;;1.92;0.68;;;12.00;84.20;;;;;;5049246;28;20021;-79
2023/04/03 13:05:00;;;;;;;4.50;0.70;;;12.00;85.40;;;;;;5048658;28;20033;-78
2023/04/03 13:07:38;;;;;;;0.82;0.63;;;11.90;85.90;;;;;;5042301;28;20029;-79
2023/04/03 13:10:07;;;;;;;0.60;0.50;;;11.90;87.60;;;;;;5040465;28;20151;-77
2023/04/03 13:12:34;;;;;;;0.55;0.38;;;11.80;86.30;;;;;;5038124;28;20124;-78
2023/04/03 13:15:20;;;;;;;0.20;0.20;;;11.70;87.50;;;;;;5056750;28;20429;-77